Time;durP1;ratioP1;P1;durP2;ratioP2;P2;SDS_P1;SDS_P2;PMS_P1;PMS_P2;Temp;Humidity;BMP_temperature;BMP_pressure;BME280_temperature;BME280_humidity;BME280_pressure;Samples;Min_cycle;Max_cycle;Signal;HPM_P1;HPM_P2
2023/01/19 00:01:22;;;;;;;4.13;3.17;;;;;;;;;;5035213;28;20465;-62
2023/01/19 00:03:47;;;;;;;3.38;3.03;;;;;;;;;;5035132;28;20037;-62
2023/01/19 00:06:13;;;;;;;3.83;3.35;;;;;;;;;;5035087;28;20028;-62
2023/01/19 00:08:39;;;;;;;5.15;3.20;;;;;;;;;;5034922;28;20049;-62
2023/01/19 00:11:05;;;;;;;4.43;3.53;;;;;;;;;;5035131;28;20087;-62
2023/01/19 00:13:31;;;;;;;4.60;3.30;;;;;;;;;;5035037;28;20029;-61
2023/01/19 00:15:56;;;;;;;4.38;3.60;;;;;;;;;;5035244;28;20017;-61
2023/01/19 00:18:22;;;;;;;3.67;3.20;;;;;;;;;;5034899;28;20511;-60
2023/01/19 00:20:48;;;;;;;3.50;3.20;;;;;;;;;;5034936;28;20630;-62
2023/01/19 00:23:14;;;;;;;3.53;3.15;;;;;;;;;;5035025;28;20527;-63
2023/01/19 00:25:43;;;;;;;4.28;3.30;;;;;;;;;;5034848;28;20515;-63
2023/01/19 00:28:14;;;;;;;3.58;2.92;;;;;;;;;;5051084;28;20044;-62
2023/01/19 00:30:41;;;;;;;5.15;3.40;;;;;;;;;;5054645;28;20104;-62
2023/01/19 00:33:07;;;;;;;4.65;3.10;;;;;;;;;;5054533;28;20036;-63
2023/01/19 00:35:33;;;;;;;3.35;3.05;;;;;;;;;;5054477;28;20033;-62
2023/01/19 00:37:59;;;;;;;3.40;3.10;;;;;;;;;;5054030;28;20108;-63
2023/01/19 00:40:25;;;;;;;4.35;3.30;;;;;;;;;;5047761;28;20105;-62
2023/01/19 00:42:50;;;;;;;4.70;3.42;;;;;;;;;;5040074;28;20104;-62
2023/01/19 00:45:21;;;;;;;3.55;3.25;;;;;;;;;;5054507;28;20044;-62
2023/01/19 00:47:48;;;;;;;4.72;3.25;;;;;;;;;;5051491;28;20028;-63
2023/01/19 00:50:18;;;;;;;3.50;3.15;;;;;;;;;;5042737;28;20043;-62
2023/01/19 00:52:44;;;;;;;5.15;3.30;;;;;;;;;;5042157;28;20108;-62
2023/01/19 00:55:11;;;;;;;3.88;3.10;;;;;;;;;;5043244;28;20028;-62
2023/01/19 00:57:38;;;;;;;3.78;3.22;;;;;;;;;;5035196;28;20338;-63
2023/01/19 01:00:06;;;;;;;4.63;2.83;;;;;;;;;;5034108;28;20017;-62
2023/01/19 01:02:32;;;;;;;3.55;3.10;;;;;;;;;;5033890;28;20029;-63
2023/01/19 01:05:01;;;;;;;3.72;3.00;;;;;;;;;;5033115;28;20031;-63
2023/01/19 01:07:28;;;;;;;3.30;2.78;;;;;;;;;;5033847;28;20120;-63
2023/01/19 01:09:55;;;;;;;3.92;2.90;;;;;;;;;;5033949;28;20042;-63
2023/01/19 01:12:22;;;;;;;3.67;3.17;;;;;;;;;;5034119;28;20063;-63
2023/01/19 01:14:47;;;;;;;3.70;2.90;;;;;;;;;;5033632;28;20429;-63
2023/01/19 01:17:13;;;;;;;4.00;3.60;;;;;;;;;;5033199;28;20030;-63
2023/01/19 01:19:40;;;;;;;3.72;3.25;;;;;;;;;;5033743;28;20021;-62
2023/01/19 01:22:06;;;;;;;4.70;3.10;;;;;;;;;;5016028;28;20022;-62
2023/01/19 01:24:32;;;;;;;3.72;3.20;;;;;;;;;;5033628;28;20056;-62
2023/01/19 01:26:57;;;;;;;3.35;3.00;;;;;;;;;;5033378;28;20021;-62
2023/01/19 01:29:23;;;;;;;3.60;3.20;;;;;;;;;;5033600;28;20029;-62
2023/01/19 01:31:49;;;;;;;3.90;2.90;;;;;;;;;;5033485;28;20021;-63
2023/01/19 01:34:15;;;;;;;3.22;2.90;;;;;;;;;;5033308;28;20109;-62
2023/01/19 01:36:41;;;;;;;3.30;2.80;;;;;;;;;;5033293;28;20030;-63
2023/01/19 01:39:07;;;;;;;3.80;3.10;;;;;;;;;;5033356;28;20026;-63
2023/01/19 01:41:32;;;;;;;4.53;2.85;;;;;;;;;;5033248;28;20078;-63
2023/01/19 01:44:00;;;;;;;3.55;3.15;;;;;;;;;;5033287;28;20080;-63
2023/01/19 01:46:29;;;;;;;4.30;3.33;;;;;;;;;;5033284;28;20026;-63
2023/01/19 01:49:14;;;;;;;3.40;3.10;;;;;;;;;;5032695;28;20035;-63
2023/01/19 01:51:46;;;;;;;3.92;2.97;;;;;;;;;;5033200;28;20428;-63
2023/01/19 01:54:15;;;;;;;3.75;3.13;;;;;;;;;;5033000;28;20469;-62
2023/01/19 01:56:46;;;;;;;3.07;2.73;;;;;;;;;;5032849;28;20029;-63
2023/01/19 01:59:24;;;;;;;5.68;2.80;;;;;;;;;;5033387;28;20033;-63
2023/01/19 02:04:45;;;;;;;3.30;3.00;;;;;;;;;;5033155;28;20091;-62
2023/01/19 02:15:29;;;;;;;3.30;3.00;;;;;;;;;;5032883;28;20089;-63
2023/01/19 02:17:57;;;;;;;2.78;2.45;;;;;;;;;;5032602;28;20037;-63
2023/01/19 02:20:26;;;;;;;3.72;2.70;;;;;;;;;;5032639;28;20036;-63
2023/01/19 02:22:55;;;;;;;3.72;2.90;;;;;;;;;;5032624;28;20021;-63
2023/01/19 02:25:22;;;;;;;3.03;2.72;;;;;;;;;;5032649;28;20030;-63
2023/01/19 02:27:50;;;;;;;3.28;2.97;;;;;;;;;;5032412;28;20030;-63
2023/01/19 02:30:17;;;;;;;3.33;2.85;;;;;;;;;;5032778;28;20449;-63
2023/01/19 02:32:42;;;;;;;3.60;3.30;;;;;;;;;;5032731;28;20401;-63
2023/01/19 02:35:09;;;;;;;3.13;2.75;;;;;;;;;;5032468;28;20033;-63
2023/01/19 02:37:38;;;;;;;3.10;2.80;;;;;;;;;;5032232;28;20037;-63
2023/01/19 02:40:09;;;;;;;3.22;2.83;;;;;;;;;;5015247;28;20033;-62
2023/01/19 02:42:44;;;;;;;2.97;2.72;;;;;;;;;;5014683;28;20028;-62
2023/01/19 02:45:13;;;;;;;3.63;3.03;;;;;;;;;;5032244;28;20481;-62
2023/01/19 02:47:43;;;;;;;3.95;3.35;;;;;;;;;;5032199;28;20033;-63
2023/01/19 02:50:37;;;;;;;3.30;2.80;;;;;;;;;;5014599;28;20037;-63
2023/01/19 02:53:25;;;;;;;4.10;3.00;;;;;;;;;;5032279;28;20492;-63
2023/01/19 02:56:23;;;;;;;3.10;2.60;;;;;;;;;;5032288;28;20032;-62
2023/01/19 02:58:52;;;;;;;3.58;2.80;;;;;;;;;;5032347;28;20047;-62
2023/01/19 03:01:28;;;;;;;3.40;3.03;;;;;;;;;;5035751;28;20030;-63
2023/01/19 03:04:02;;;;;;;3.45;2.78;;;;;;;;;;5036360;28;20481;-62
2023/01/19 03:06:54;;;;;;;3.17;2.88;;;;;;;;;;5036083;28;20030;-63
2023/01/19 03:09:52;;;;;;;2.90;2.70;;;;;;;;;;5035951;28;20054;-63
2023/01/19 03:12:33;;;;;;;3.10;2.63;;;;;;;;;;5036438;28;20052;-62
2023/01/19 03:15:04;;;;;;;3.38;3.08;;;;;;;;;;5036073;28;20470;-63
2023/01/19 03:17:31;;;;;;;3.50;2.95;;;;;;;;;;5036125;28;20504;-63
2023/01/19 03:19:57;;;;;;;3.08;2.78;;;;;;;;;;5035825;28;20030;-62
2023/01/19 03:22:28;;;;;;;3.17;2.70;;;;;;;;;;5036077;28;20032;-63
2023/01/19 03:24:58;;;;;;;3.53;2.60;;;;;;;;;;5035984;28;20385;-63
2023/01/19 03:27:31;;;;;;;3.42;3.10;;;;;;;;;;5035850;28;20060;-62
2023/01/19 03:30:00;;;;;;;3.25;2.65;;;;;;;;;;5036137;28;20044;-62
2023/01/19 03:32:38;;;;;;;3.17;2.53;;;;;;;;;;5035811;28;20049;-63
2023/01/19 03:35:10;;;;;;;3.40;2.88;;;;;;;;;;5035730;28;20037;-62
2023/01/19 03:37:43;;;;;;;2.85;2.45;;;;;;;;;;5035654;28;20021;-63
2023/01/19 03:40:10;;;;;;;2.88;2.58;;;;;;;;;;5035754;28;20029;-62
2023/01/19 03:42:37;;;;;;;3.28;2.60;;;;;;;;;;5035616;28;20056;-62
2023/01/19 03:45:03;;;;;;;3.22;2.92;;;;;;;;;;5035518;28;20033;-63
2023/01/19 03:47:29;;;;;;;3.53;2.78;;;;;;;;;;5035341;28;20021;-63
2023/01/19 03:49:57;;;;;;;2.83;2.40;;;;;;;;;;5035721;28;20164;-62
2023/01/19 03:52:33;;;;;;;3.65;2.63;;;;;;;;;;5035525;28;20479;-63
2023/01/19 03:55:00;;;;;;;3.22;2.92;;;;;;;;;;5035367;28;20039;-63
2023/01/19 03:57:26;;;;;;;4.45;2.90;;;;;;;;;;5035338;28;20041;-63
2023/01/19 03:59:52;;;;;;;3.00;2.70;;;;;;;;;;5035388;28;20017;-63
2023/01/19 04:02:18;;;;;;;2.85;2.60;;;;;;;;;;5035504;28;20026;-63
2023/01/19 04:04:43;;;;;;;3.00;2.67;;;;;;;;;;5035530;28;20425;-63
2023/01/19 04:07:09;;;;;;;3.05;2.72;;;;;;;;;;5035273;28;20029;-63
2023/01/19 04:09:35;;;;;;;3.10;2.60;;;;;;;;;;5034879;28;20038;-63
2023/01/19 04:12:01;;;;;;;2.85;2.55;;;;;;;;;;5034236;28;20029;-62
2023/01/19 04:14:26;;;;;;;3.33;2.83;;;;;;;;;;5035009;28;20029;-63
2023/01/19 04:16:52;;;;;;;3.13;2.83;;;;;;;;;;5034866;28;20029;-63
2023/01/19 04:19:17;;;;;;;3.10;2.75;;;;;;;;;;5034753;28;20029;-63
2023/01/19 04:21:43;;;;;;;3.60;2.67;;;;;;;;;;5034864;28;20036;-63
2023/01/19 04:24:09;;;;;;;3.50;2.80;;;;;;;;;;5034843;28;20022;-62
2023/01/19 04:26:34;;;;;;;2.78;2.53;;;;;;;;;;5034745;28;20017;-63
2023/01/19 04:29:00;;;;;;;3.00;2.67;;;;;;;;;;5034716;28;20022;-63
2023/01/19 04:31:26;;;;;;;3.00;2.70;;;;;;;;;;5034858;28;20056;-63
2023/01/19 04:33:51;;;;;;;3.03;2.70;;;;;;;;;;5034631;28;20420;-62
2023/01/19 04:36:17;;;;;;;3.22;2.53;;;;;;;;;;5016781;28;20045;-62
2023/01/19 04:38:43;;;;;;;2.88;2.60;;;;;;;;;;5034303;28;20044;-62
2023/01/19 04:41:08;;;;;;;3.00;2.70;;;;;;;;;;5034439;28;20032;-63
2023/01/19 04:43:34;;;;;;;2.95;2.60;;;;;;;;;;5034423;28;20400;-62
2023/01/19 04:45:59;;;;;;;2.83;2.53;;;;;;;;;;5034398;28;20032;-63
2023/01/19 04:48:25;;;;;;;3.08;2.53;;;;;;;;;;5034474;28;20105;-62
2023/01/19 04:50:51;;;;;;;2.63;2.42;;;;;;;;;;5034252;28;20484;-63
2023/01/19 04:53:17;;;;;;;3.13;2.83;;;;;;;;;;5034184;28;20021;-62
2023/01/19 04:55:43;;;;;;;4.47;2.85;;;;;;;;;;5034119;28;20120;-63
2023/01/19 04:58:08;;;;;;;2.72;2.42;;;;;;;;;;5034130;28;20057;-63
2023/01/19 05:00:34;;;;;;;2.72;2.40;;;;;;;;;;5034040;28;20034;-63
2023/01/19 05:03:00;;;;;;;2.45;2.25;;;;;;;;;;5034394;28;20529;-63
2023/01/19 05:05:26;;;;;;;2.88;2.58;;;;;;;;;;5034332;28;20507;-63
2023/01/19 05:07:51;;;;;;;2.67;2.47;;;;;;;;;;5033655;28;20072;-62
2023/01/19 05:10:17;;;;;;;2.63;2.42;;;;;;;;;;5034001;28;20428;-63
2023/01/19 05:12:43;;;;;;;3.10;2.80;;;;;;;;;;5034207;28;20040;-63
2023/01/19 05:15:10;;;;;;;2.90;2.60;;;;;;;;;;5033727;28;20492;-62
2023/01/19 05:17:35;;;;;;;2.90;2.70;;;;;;;;;;5033663;28;20029;-63
2023/01/19 05:20:03;;;;;;;2.78;2.47;;;;;;;;;;5033565;28;20028;-63
2023/01/19 05:22:28;;;;;;;2.65;2.45;;;;;;;;;;5033470;28;20025;-63
2023/01/19 05:24:54;;;;;;;2.72;2.47;;;;;;;;;;5033078;28;20051;-63
2023/01/19 05:27:20;;;;;;;3.72;3.08;;;;;;;;;;5033559;28;20021;-63
2023/01/19 05:29:45;;;;;;;3.03;2.67;;;;;;;;;;5033791;28;20017;-63
2023/01/19 05:32:12;;;;;;;2.95;2.58;;;;;;;;;;5033580;28;20033;-62
2023/01/19 05:34:38;;;;;;;3.00;2.70;;;;;;;;;;5033287;28;20041;-62
2023/01/19 05:37:03;;;;;;;3.33;2.65;;;;;;;;;;5033502;28;20029;-63
2023/01/19 05:39:29;;;;;;;3.42;2.72;;;;;;;;;;5033180;28;20049;-63
2023/01/19 05:41:55;;;;;;;3.70;2.50;;;;;;;;;;5033294;28;20037;-63
2023/01/19 05:44:21;;;;;;;3.13;2.88;;;;;;;;;;5033475;28;20022;-63
2023/01/19 05:46:46;;;;;;;2.58;2.38;;;;;;;;;;5033290;28;20025;-63
2023/01/19 05:49:12;;;;;;;2.72;2.40;;;;;;;;;;5033040;28;20047;-63
2023/01/19 05:51:39;;;;;;;2.35;2.20;;;;;;;;;;5033188;28;20026;-62
2023/01/19 05:54:05;;;;;;;2.92;2.50;;;;;;;;;;5033234;28;20029;-63
2023/01/19 05:56:31;;;;;;;4.15;3.00;;;;;;;;;;5032863;28;20025;-63
2023/01/19 05:58:58;;;;;;;3.47;2.60;;;;;;;;;;5032838;28;20032;-62
2023/01/19 06:01:23;;;;;;;2.88;2.60;;;;;;;;;;5032942;28;20044;-62
2023/01/19 06:03:49;;;;;;;2.60;2.40;;;;;;;;;;5032839;28;20022;-63
2023/01/19 06:06:15;;;;;;;2.90;2.60;;;;;;;;;;5035491;28;20045;-62
2023/01/19 06:08:41;;;;;;;2.70;2.50;;;;;;;;;;5032563;28;20122;-64
2023/01/19 06:11:06;;;;;;;2.55;2.35;;;;;;;;;;5032773;28;20100;-65
2023/01/19 06:13:33;;;;;;;2.72;2.53;;;;;;;;;;5032637;28;20472;-64
2023/01/19 06:15:59;;;;;;;2.80;2.60;;;;;;;;;;5032685;28;20095;-64
2023/01/19 06:18:25;;;;;;;2.90;2.63;;;;;;;;;;5049595;28;20381;-63
2023/01/19 06:20:51;;;;;;;3.13;2.60;;;;;;;;;;5032508;28;20025;-63
2023/01/19 06:23:17;;;;;;;2.60;2.38;;;;;;;;;;5032445;28;20025;-63
2023/01/19 06:25:42;;;;;;;6.13;2.95;;;;;;;;;;5032167;28;20103;-63
2023/01/19 06:28:08;;;;;;;13.98;4.13;;;;;;;;;;5050828;28;20029;-64
2023/01/19 06:30:36;;;;;;;14.82;4.45;;;;;;;;;;5039601;28;20059;-62
2023/01/19 06:33:02;;;;;;;16.92;5.45;;;;;;;;;;5029662;28;20045;-63
2023/01/19 06:35:28;;;;;;;19.27;6.43;;;;;;;;;;5033535;28;20033;-63
2023/01/19 06:37:54;;;;;;;28.73;6.82;;;;;;;;;;5040576;28;20452;-63
2023/01/19 06:40:19;;;;;;;25.90;7.20;;;;;;;;;;5046462;28;20060;-63
2023/01/19 06:42:45;;;;;;;43.63;8.85;;;;;;;;;;5016764;28;20064;-63
2023/01/19 06:45:10;;;;;;;47.33;9.65;;;;;;;;;;5024418;28;20028;-64
2023/01/19 06:47:36;;;;;;;39.17;8.93;;;;;;;;;;5034587;28;20033;-63
2023/01/19 06:50:02;;;;;;;49.45;9.20;;;;;;;;;;5031074;28;20021;-63
2023/01/19 06:52:27;;;;;;;34.85;8.52;;;;;;;;;;5030804;28;20108;-64
2023/01/19 06:54:53;;;;;;;32.25;7.68;;;;;;;;;;5030549;28;20183;-64
2023/01/19 06:57:20;;;;;;;28.10;6.85;;;;;;;;;;5030385;28;20046;-64
2023/01/19 06:59:49;;;;;;;33.78;8.38;;;;;;;;;;5030572;28;20083;-63
2023/01/19 07:02:18;;;;;;;32.17;7.68;;;;;;;;;;5031149;28;20036;-64
2023/01/19 07:04:44;;;;;;;24.90;7.38;;;;;;;;;;5031738;28;20084;-63
2023/01/19 07:07:10;;;;;;;32.05;7.05;;;;;;;;;;5032079;28;20030;-63
2023/01/19 07:09:35;;;;;;;31.35;6.72;;;;;;;;;;5031918;28;20049;-63
2023/01/19 07:12:01;;;;;;;27.60;6.82;;;;;;;;;;5032087;28;20124;-63
2023/01/19 07:14:32;;;;;;;26.60;7.65;;;;;;;;;;5032172;28;20065;-63
2023/01/19 07:16:58;;;;;;;25.45;6.90;;;;;;;;;;5031973;28;20021;-63
2023/01/19 07:19:23;;;;;;;24.10;6.38;;;;;;;;;;5031898;28;20021;-63
2023/01/19 07:21:49;;;;;;;25.08;6.47;;;;;;;;;;5031902;28;20113;-62
2023/01/19 07:24:15;;;;;;;23.75;6.43;;;;;;;;;;5031961;28;20534;-63
2023/01/19 07:26:41;;;;;;;25.05;6.18;;;;;;;;;;5031368;28;20030;-63
2023/01/19 07:29:07;;;;;;;30.13;6.40;;;;;;;;;;5036361;28;20043;-64
2023/01/19 07:31:32;;;;;;;26.50;6.80;;;;;;;;;;5039115;28;20064;-63
2023/01/19 07:33:59;;;;;;;26.30;6.30;;;;;;;;;;5041350;28;20112;-63
2023/01/19 07:36:24;;;;;;;23.67;6.57;;;;;;;;;;5036903;28;20029;-63
2023/01/19 07:38:50;;;;;;;25.30;6.85;;;;;;;;;;5032021;28;20095;-63
2023/01/19 07:41:16;;;;;;;27.15;7.10;;;;;;;;;;5031828;28;20033;-63
2023/01/19 07:43:41;;;;;;;21.85;7.05;;;;;;;;;;5032146;28;20033;-63
2023/01/19 07:46:07;;;;;;;25.92;5.90;;;;;;;;;;5034552;28;20496;-63
2023/01/19 07:48:33;;;;;;;19.58;5.95;;;;;;;;;;5037672;28;20048;-63
2023/01/19 07:51:00;;;;;;;22.70;6.25;;;;;;;;;;5035375;28;20028;-62
2023/01/19 07:53:26;;;;;;;22.80;6.57;;;;;;;;;;5037412;28;20030;-64
2023/01/19 07:55:55;;;;;;;24.80;6.05;;;;;;;;;;5026465;28;20025;-64
2023/01/19 07:58:23;;;;;;;27.98;6.45;;;;;;;;;;5043556;28;20029;-64
2023/01/19 08:00:49;;;;;;;22.38;5.80;;;;;;;;;;5044104;28;20045;-64
2023/01/19 08:03:15;;;;;;;22.85;6.50;;;;;;;;;;5044299;28;20021;-63
2023/01/19 08:05:41;;;;;;;23.83;6.10;;;;;;;;;;5036053;28;20040;-62
2023/01/19 08:08:07;;;;;;;23.77;6.28;;;;;;;;;;5034559;28;20046;-62
2023/01/19 08:10:33;;;;;;;20.60;6.22;;;;;;;;;;5036354;28;20549;-63
2023/01/19 08:12:59;;;;;;;19.23;5.60;;;;;;;;;;5037161;28;20036;-63
2023/01/19 08:15:25;;;;;;;17.70;6.00;;;;;;;;;;5053340;28;20112;-62
2023/01/19 08:17:55;;;;;;;20.05;5.45;;;;;;;;;;5048888;28;20536;-63
2023/01/19 08:20:22;;;;;;;18.92;6.13;;;;;;;;;;5034955;28;20033;-62
2023/01/19 08:22:48;;;;;;;16.50;5.20;;;;;;;;;;5033348;28;20044;-62
2023/01/19 08:25:14;;;;;;;24.00;6.75;;;;;;;;;;5015840;28;20112;-62
2023/01/19 08:27:39;;;;;;;18.20;5.50;;;;;;;;;;5018049;28;20125;-62
2023/01/19 08:30:05;;;;;;;20.77;6.00;;;;;;;;;;5052880;28;20021;-62
2023/01/19 08:32:31;;;;;;;16.23;5.57;;;;;;;;;;5033615;28;20022;-63
2023/01/19 08:34:57;;;;;;;14.80;5.25;;;;;;;;;;5019005;28;20599;-63
2023/01/19 08:37:23;;;;;;;17.80;5.75;;;;;;;;;;5015426;28;20102;-62
2023/01/19 08:39:49;;;;;;;18.00;5.28;;;;;;;;;;5032819;28;20068;-62
2023/01/19 08:42:15;;;;;;;19.55;5.47;;;;;;;;;;5033021;28;20033;-62
2023/01/19 08:44:43;;;;;;;20.67;6.40;;;;;;;;;;5032878;28;20025;-62
2023/01/19 08:47:09;;;;;;;19.45;6.13;;;;;;;;;;5032774;28;20082;-62
2023/01/19 08:49:35;;;;;;;14.25;5.18;;;;;;;;;;5032582;28;20056;-63
2023/01/19 08:52:01;;;;;;;23.48;6.40;;;;;;;;;;5032643;28;20068;-62
2023/01/19 08:54:27;;;;;;;24.23;6.38;;;;;;;;;;5043250;28;20075;-63
2023/01/19 08:56:53;;;;;;;22.52;5.93;;;;;;;;;;5018299;28;20444;-62
2023/01/19 08:59:19;;;;;;;18.58;5.72;;;;;;;;;;5052217;28;20029;-62
2023/01/19 09:01:44;;;;;;;19.92;5.53;;;;;;;;;;5048959;28;20030;-62
2023/01/19 09:04:10;;;;;;;18.45;6.10;;;;;;;;;;5032520;28;20075;-62
2023/01/19 09:06:36;;;;;;;18.38;6.55;;;;;;;;;;5032852;28;20037;-63
2023/01/19 09:09:01;;;;;;;19.63;5.88;;;;;;;;;;5031999;28;20046;-63
2023/01/19 09:11:27;;;;;;;20.42;5.97;;;;;;;;;;5036803;28;20025;-63
2023/01/19 09:13:52;;;;;;;21.02;5.85;;;;;;;;;;5032270;28;20116;-63
2023/01/19 09:16:18;;;;;;;21.35;6.22;;;;;;;;;;5032281;28;20021;-63
2023/01/19 09:18:44;;;;;;;19.45;5.70;;;;;;;;;;5032346;28;20032;-63
2023/01/19 09:21:10;;;;;;;17.08;6.25;;;;;;;;;;5034594;28;20070;-63
2023/01/19 09:23:36;;;;;;;15.32;5.70;;;;;;;;;;5033261;28;20412;-63
2023/01/19 09:26:03;;;;;;;13.23;5.40;;;;;;;;;;5037096;28;20034;-63
2023/01/19 09:28:29;;;;;;;16.63;5.68;;;;;;;;;;5044488;28;20119;-63
2023/01/19 09:30:55;;;;;;;18.45;5.45;;;;;;;;;;5036609;28;20105;-63
2023/01/19 09:33:21;;;;;;;15.52;6.18;;;;;;;;;;5031850;28;20116;-63
2023/01/19 09:35:48;;;;;;;15.27;5.95;;;;;;;;;;5031871;28;20468;-64
2023/01/19 09:38:15;;;;;;;19.50;6.20;;;;;;;;;;5032042;28;20374;-64
2023/01/19 09:40:52;;;;;;;19.05;5.60;;;;;;;;;;5032008;28;20057;-63
2023/01/19 09:43:20;;;;;;;16.65;5.50;;;;;;;;;;5032067;28;20037;-63
2023/01/19 09:45:59;;;;;;;17.73;6.05;;;;;;;;;;5037418;28;20148;-63
2023/01/19 09:48:31;;;;;;;18.05;6.28;;;;;;;;;;5034245;28;20064;-63
2023/01/19 09:51:03;;;;;;;15.68;5.78;;;;;;;;;;5031531;28;20421;-63
2023/01/19 09:53:52;;;;;;;16.67;6.85;;;;;;;;;;5031670;28;20091;-63
2023/01/19 09:56:21;;;;;;;21.20;6.15;;;;;;;;;;5031562;28;20026;-62
2023/01/19 09:58:49;;;;;;;15.97;6.30;;;;;;;;;;5031506;28;20438;-63
2023/01/19 10:01:43;;;;;;;18.10;6.38;;;;;;;;;;5031467;28;20254;-62
2023/01/19 10:04:38;;;;;;;18.00;5.53;;;;;;;;;;5031577;28;20068;-62
2023/01/19 10:07:36;;;;;;;17.38;5.93;;;;;;;;;;5031466;28;20870;-62
2023/01/19 10:10:14;;;;;;;13.93;5.53;;;;;;;;;;4982293;28;20065;-62
2023/01/19 10:13:01;;;;;;;18.25;5.75;;;;;;;;;;5011674;28;20022;-62
2023/01/19 10:15:48;;;;;;;19.00;6.50;;;;;;;;;;5011442;28;20393;-62
2023/01/19 10:18:42;;;;;;;20.50;6.28;;;;;;;;;;5010139;28;20069;-62
2023/01/19 10:21:09;;;;;;;16.27;5.78;;;;;;;;;;5011372;28;20037;-62
2023/01/19 10:23:40;;;;;;;17.48;6.00;;;;;;;;;;5011351;28;20022;-61
2023/01/19 10:26:19;;;;;;;18.38;6.03;;;;;;;;;;5011383;28;20480;-61
2023/01/19 10:28:46;;;;;;;15.55;5.65;;;;;;;;;;5010027;28;20022;-62
2023/01/19 10:31:13;;;;;;;10.90;5.68;;;;;;;;;;5011340;28;20022;-62
2023/01/19 10:33:38;;;;;;;17.92;5.82;;;;;;;;;;5011078;28;20022;-62
2023/01/19 10:36:33;;;;;;;12.63;4.70;;;;;;;;;;5011371;28;20089;-62
2023/01/19 10:38:58;;;;;;;10.30;5.57;;;;;;;;;;5011053;28;20025;-62
2023/01/19 10:41:51;;;;;;;11.85;5.43;;;;;;;;;;5011113;28;20026;-63
2023/01/19 10:44:27;;;;;;;15.30;5.82;;;;;;;;;;5020951;28;20033;-63
2023/01/19 10:46:56;;;;;;;16.83;6.47;;;;;;;;;;5030932;28;20091;-62
2023/01/19 10:49:30;;;;;;;17.08;5.47;;;;;;;;;;5030604;28;20041;-63
2023/01/19 10:51:58;;;;;;;15.52;6.10;;;;;;;;;;5026790;28;20086;-62
2023/01/19 10:54:25;;;;;;;16.25;6.10;;;;;;;;;;5010882;28;20048;-62
2023/01/19 10:56:57;;;;;;;13.98;5.85;;;;;;;;;;5009668;28;20057;-63
2023/01/19 10:59:36;;;;;;;13.50;5.68;;;;;;;;;;5011069;28;20033;-63
2023/01/19 11:02:28;;;;;;;16.60;6.47;;;;;;;;;;5011478;28;20113;-62
2023/01/19 11:05:20;;;;;;;13.88;5.90;;;;;;;;;;5007915;28;20117;-62
2023/01/19 11:07:46;;;;;;;15.93;5.60;;;;;;;;;;5020381;28;20381;-62
2023/01/19 11:10:14;;;;;;;14.68;5.65;;;;;;;;;;5009492;28;20069;-63
2023/01/19 11:12:46;;;;;;;12.73;5.95;;;;;;;;;;5010771;28;20037;-63
2023/01/19 11:15:21;;;;;;;15.63;5.93;;;;;;;;;;5009553;28;20037;-63
2023/01/19 11:17:48;;;;;;;14.02;6.25;;;;;;;;;;5010642;28;20026;-63
2023/01/19 11:20:27;;;;;;;14.80;6.20;;;;;;;;;;5010815;28;20486;-63
2023/01/19 11:23:04;;;;;;;12.43;5.82;;;;;;;;;;5013394;28;20033;-63
2023/01/19 11:25:33;;;;;;;11.70;5.93;;;;;;;;;;5010213;28;20030;-63
2023/01/19 11:27:59;;;;;;;14.98;5.65;;;;;;;;;;5014859;28;20097;-62
2023/01/19 11:30:26;;;;;;;13.73;6.07;;;;;;;;;;5015006;28;20029;-63
2023/01/19 11:32:52;;;;;;;12.35;6.07;;;;;;;;;;5014477;28;20118;-63
2023/01/19 11:35:35;;;;;;;16.20;5.80;;;;;;;;;;4996928;28;20026;-63
2023/01/19 11:38:22;;;;;;;12.88;5.57;;;;;;;;;;4994809;28;20026;-62
2023/01/19 11:40:58;;;;;;;13.88;6.03;;;;;;;;;;4994803;28;20050;-62
2023/01/19 11:43:28;;;;;;;14.20;6.03;;;;;;;;;;4994683;28;20046;-62
2023/01/19 11:45:56;;;;;;;15.48;6.32;;;;;;;;;;4994736;28;20390;-63
2023/01/19 11:48:28;;;;;;;15.23;6.40;;;;;;;;;;4994946;28;20120;-63
2023/01/19 11:50:58;;;;;;;10.43;5.80;;;;;;;;;;4994758;28;20030;-63
2023/01/19 11:53:28;;;;;;;13.18;5.97;;;;;;;;;;4994471;28;20034;-63
2023/01/19 11:56:07;;;;;;;15.40;6.47;;;;;;;;;;4994554;28;20048;-63
2023/01/19 11:58:38;;;;;;;16.42;6.25;;;;;;;;;;4994531;28;20046;-63
2023/01/19 12:01:23;;;;;;;;;;;;;;;;;;4994624;28;20034;-63
2023/01/19 12:04:13;;;;;;;13.88;6.38;;;;;;;;;;5014061;28;19965;-64
2023/01/19 12:06:44;;;;;;;13.60;6.17;;;;;;;;;;5013912;28;20168;-63
2023/01/19 12:09:09;;;;;;;13.43;5.80;;;;;;;;;;5015723;28;20560;-63
2023/01/19 12:11:40;;;;;;;11.15;5.90;;;;;;;;;;5033538;28;20109;-63
2023/01/19 12:14:18;;;;;;;14.82;6.10;;;;;;;;;;5033422;28;20030;-63
2023/01/19 12:16:45;;;;;;;16.77;6.45;;;;;;;;;;5033545;28;20056;-63
2023/01/19 12:19:18;;;;;;;12.60;6.13;;;;;;;;;;5016028;28;20036;-63
2023/01/19 12:21:47;;;;;;;11.73;5.97;;;;;;;;;;5033551;28;20095;-62
2023/01/19 12:24:17;;;;;;;14.55;6.15;;;;;;;;;;5033379;28;20030;-63
2023/01/19 12:26:55;;;;;;;11.13;6.53;;;;;;;;;;5033361;28;20025;-63
2023/01/19 12:29:24;;;;;;;14.45;6.28;;;;;;;;;;5041777;28;20033;-63
2023/01/19 12:32:11;;;;;;;13.77;6.25;;;;;;;;;;5033116;28;20101;-64
2023/01/19 12:34:54;;;;;;;13.52;6.13;;;;;;;;;;5033155;28;20036;-64
2023/01/19 12:37:42;;;;;;;11.85;6.07;;;;;;;;;;5033491;28;20029;-64
2023/01/19 12:40:23;;;;;;;11.77;6.03;;;;;;;;;;5033106;28;20037;-64
2023/01/19 12:43:03;;;;;;;10.75;6.25;;;;;;;;;;5032997;28;20021;-64
2023/01/19 12:45:32;;;;;;;11.48;6.97;;;;;;;;;;5032880;28;20026;-64
2023/01/19 12:47:58;;;;;;;11.07;6.05;;;;;;;;;;5032987;28;20097;-64
2023/01/19 12:50:25;;;;;;;10.25;6.38;;;;;;;;;;5032771;28;20129;-64
2023/01/19 12:53:01;;;;;;;10.20;6.03;;;;;;;;;;5032829;28;20044;-64
2023/01/19 12:55:30;;;;;;;10.32;6.70;;;;;;;;;;5032780;28;20112;-63
2023/01/19 12:58:22;;;;;;;14.45;6.35;;;;;;;;;;5033047;28;20064;-63
2023/01/19 13:00:50;;;;;;;11.25;5.97;;;;;;;;;;5032496;28;20433;-64
2023/01/19 13:03:16;;;;;;;10.73;6.50;;;;;;;;;;5032571;28;20057;-64
2023/01/19 13:05:41;;;;;;;10.90;6.10;;;;;;;;;;5032481;28;20057;-63
2023/01/19 13:08:07;;;;;;;12.50;6.13;;;;;;;;;;5032373;28;20025;-64
2023/01/19 13:10:51;;;;;;;11.05;6.22;;;;;;;;;;5032463;28;20029;-64
2023/01/19 13:13:17;;;;;;;12.38;5.93;;;;;;;;;;5032460;28;20025;-64
2023/01/19 13:15:43;;;;;;;13.80;6.43;;;;;;;;;;5032345;28;20036;-64
2023/01/19 13:18:16;;;;;;;9.43;6.22;;;;;;;;;;5032314;28;20040;-64
2023/01/19 13:21:32;;;;;;;11.10;6.55;;;;;;;;;;5032246;28;20481;-64
2023/01/19 13:24:18;;;;;;;10.90;6.55;;;;;;;;;;4990249;28;20065;-64
2023/01/19 13:26:49;;;;;;;11.20;6.35;;;;;;;;;;5032116;28;20037;-63
2023/01/19 13:29:23;;;;;;;12.70;6.50;;;;;;;;;;5032125;28;20111;-64
2023/01/19 13:31:52;;;;;;;11.82;6.53;;;;;;;;;;5014226;28;20505;-64
2023/01/19 13:34:24;;;;;;;10.35;5.88;;;;;;;;;;5031857;28;20122;-64
2023/01/19 13:36:54;;;;;;;12.82;6.50;;;;;;;;;;5032043;28;20180;-64
2023/01/19 13:39:26;;;;;;;11.70;6.32;;;;;;;;;;5031816;28;20048;-64
2023/01/19 13:41:56;;;;;;;11.43;6.05;;;;;;;;;;5032080;28;20036;-64
2023/01/19 13:44:24;;;;;;;12.63;6.63;;;;;;;;;;5031164;28;20026;-64
2023/01/19 13:46:51;;;;;;;10.75;6.32;;;;;;;;;;5032043;28;20033;-64
2023/01/19 13:49:30;;;;;;;9.48;6.28;;;;;;;;;;5031576;28;20029;-64
2023/01/19 13:52:06;;;;;;;10.90;6.47;;;;;;;;;;5031817;28;20018;-64
2023/01/19 13:54:32;;;;;;;11.07;6.78;;;;;;;;;;5031467;28;20029;-64
2023/01/19 13:56:57;;;;;;;14.10;6.85;;;;;;;;;;5031567;28;20028;-64
2023/01/19 13:59:23;;;;;;;11.50;6.38;;;;;;;;;;5057973;28;20052;-64
2023/01/19 14:01:50;;;;;;;12.80;7.10;;;;;;;;;;5071024;28;20020;-64
2023/01/19 14:04:31;;;;;;;13.10;6.28;;;;;;;;;;5071249;28;20488;-64
2023/01/19 14:07:03;;;;;;;12.38;6.53;;;;;;;;;;5071000;28;20028;-64
2023/01/19 14:09:29;;;;;;;10.63;6.28;;;;;;;;;;5071058;28;20053;-64
2023/01/19 14:12:16;;;;;;;10.23;6.68;;;;;;;;;;5070822;28;20093;-64
2023/01/19 14:14:43;;;;;;;10.55;6.50;;;;;;;;;;5071069;28;20035;-63
2023/01/19 14:17:22;;;;;;;12.13;6.47;;;;;;;;;;5048025;28;20041;-63
2023/01/19 14:19:49;;;;;;;10.35;6.65;;;;;;;;;;5038545;28;20377;-64
2023/01/19 14:22:15;;;;;;;10.57;6.53;;;;;;;;;;5046147;28;20096;-63
2023/01/19 14:24:40;;;;;;;19.90;7.10;;;;;;;;;;5050986;28;20128;-64
2023/01/19 14:27:22;;;;;;;15.65;6.55;;;;;;;;;;5050924;28;20029;-64
2023/01/19 14:29:52;;;;;;;12.15;7.03;;;;;;;;;;5050555;28;20124;-63
2023/01/19 14:32:21;;;;;;;10.75;6.47;;;;;;;;;;5051063;28;20385;-64
2023/01/19 14:34:51;;;;;;;16.70;7.03;;;;;;;;;;5044941;28;20041;-64
2023/01/19 14:37:21;;;;;;;8.95;6.68;;;;;;;;;;5030975;28;20037;-64
2023/01/19 14:40:07;;;;;;;12.20;6.93;;;;;;;;;;5037007;28;20072;-64
2023/01/19 14:42:42;;;;;;;11.65;6.72;;;;;;;;;;5016572;28;20040;-64
2023/01/19 14:45:37;;;;;;;21.48;7.80;;;;;;;;;;5033084;28;20029;-64
2023/01/19 14:48:15;;;;;;;15.63;6.65;;;;;;;;;;5021657;28;20048;-63
2023/01/19 14:50:41;;;;;;;15.75;6.85;;;;;;;;;;5043616;28;20032;-63
2023/01/19 14:53:15;;;;;;;21.75;7.38;;;;;;;;;;5039206;28;20466;-63
2023/01/19 14:55:48;;;;;;;16.20;7.18;;;;;;;;;;5036822;28;20021;-63
2023/01/19 14:58:19;;;;;;;24.58;6.80;;;;;;;;;;5038524;28;20435;-63
2023/01/19 15:00:47;;;;;;;13.50;6.85;;;;;;;;;;5039169;28;20029;-63
2023/01/19 15:03:13;;;;;;;10.38;6.25;;;;;;;;;;5038276;28;20630;-63